Wetterdaten: Woche 06.08.18 - 12.08.18 (KW32)
Datum Zeit Temperatur Luftfeuchte Luftdruck Niederschlag Windrichtung Sonnenschein Solar Wind
06.08.2018 00:00 20,9 C 74 % 1014,4 hPa 0,0 l/m N 0,00 h 0 W/m 0,1 km/h (0 Bft)
06.08.2018 01:00 20,3 C 74 % 1014,5 hPa 0,0 l/m N 0,00 h 0 W/m 1,5 km/h (1 Bft)
06.08.2018 02:00 19,6 C 76 % 1014,2 hPa 0,0 l/m N 0,00 h 0 W/m 0,8 km/h (0 Bft)
06.08.2018 03:00 19,3 C 75 % 1013,8 hPa 0,0 l/m O-NO 0,00 h 0 W/m 3,1 km/h (1 Bft)
06.08.2018 04:00 18,7 C 76 % 1013,3 hPa 0,0 l/m O-NO 0,00 h 0 W/m 5,0 km/h (1 Bft)
06.08.2018 05:00 18,0 C 77 % 1013,3 hPa 0,0 l/m O-NO 0,00 h 5 W/m 2,7 km/h (1 Bft)
06.08.2018 06:00 17,6 C 79 % 1013,5 hPa 0,0 l/m O-NO 0,17 h 23 W/m 3,2 km/h (1 Bft)
06.08.2018 07:00 18,2 C 77 % 1013,7 hPa 0,0 l/m NO 0,50 h 119 W/m 10,1 km/h (2 Bft)
06.08.2018 08:00 20,1 C 73 % 1014,0 hPa 0,0 l/m N-NO 0,75 h 274 W/m 5,1 km/h (1 Bft)
06.08.2018 09:00 22,4 C 67 % 1013,9 hPa 0,0 l/m NO 0,92 h 416 W/m 8,8 km/h (2 Bft)
06.08.2018 10:00 24,6 C 64 % 1013,5 hPa 0,0 l/m O-NO 0,83 h 514 W/m 10,4 km/h (2 Bft)
06.08.2018 11:00 27,4 C 55 % 1013,2 hPa 0,0 l/m O-NO 1,00 h 631 W/m 12,6 km/h (3 Bft)
06.08.2018 12:00 29,2 C 46 % 1012,7 hPa 0,0 l/m NO 0,83 h 707 W/m 14,5 km/h (3 Bft)
06.08.2018 13:00 30,6 C 39 % 1012,3 hPa 0,0 l/m NO 0,92 h 794 W/m 12,4 km/h (3 Bft)
06.08.2018 14:00 31,6 C 38 % 1011,7 hPa 0,0 l/m O 0,92 h 797 W/m 11,3 km/h (2 Bft)
06.08.2018 15:00 31,8 C 38 % 1011,2 hPa 0,0 l/m O-NO 0,83 h 717 W/m 9,7 km/h (2 Bft)
06.08.2018 16:00 32,2 C 38 % 1010,6 hPa 0,0 l/m O 0,92 h 530 W/m 12,9 km/h (3 Bft)
06.08.2018 17:00 32,0 C 38 % 1010,4 hPa 0,0 l/m O-NO 1,00 h 415 W/m 14,2 km/h (3 Bft)
06.08.2018 18:00 30,9 C 40 % 1010,1 hPa 0,0 l/m O-NO 0,33 h 172 W/m 11,0 km/h (2 Bft)
06.08.2018 19:00 29,4 C 45 % 1010,1 hPa 0,0 l/m O-NO 0,00 h 56 W/m 3,9 km/h (1 Bft)
06.08.2018 20:00 26,8 C 56 % 1010,3 hPa 0,0 l/m O-SO 0,00 h 16 W/m 0,1 km/h (0 Bft)
06.08.2018 21:00 24,6 C 64 % 1011,4 hPa 0,0 l/m SW 0,00 h 0 W/m 20,0 km/h (4 Bft)
06.08.2018 22:00 22,6 C 70 % 1011,7 hPa 0,0 l/m S-SW 0,00 h 0 W/m 14,5 km/h (3 Bft)
06.08.2018 23:00 21,7 C 72 % 1011,8 hPa 0,0 l/m S-SW 0,00 h 0 W/m 6,8 km/h (2 Bft)
07.08.2018 00:00 21,3 C 70 % 1011,1 hPa 0,0 l/m SW 0,00 h 0 W/m 14,6 km/h (3 Bft)
07.08.2018 01:00 20,6 C 74 % 1010,4 hPa 0,0 l/m SO 0,00 h 0 W/m 3,2 km/h (1 Bft)
07.08.2018 02:00 19,2 C 81 % 1010,5 hPa 0,0 l/m N 0,00 h 0 W/m 1,1 km/h (0 Bft)
07.08.2018 03:00 18,2 C 85 % 1010,6 hPa 0,0 l/m N 0,00 h 0 W/m 0,0 km/h (0 Bft)
07.08.2018 04:00 17,8 C 86 % 1010,6 hPa 0,0 l/m N 0,00 h 0 W/m 2,1 km/h (1 Bft)
07.08.2018 05:00 18,1 C 84 % 1010,6 hPa 0,0 l/m N 0,00 h 0 W/m 0,8 km/h (0 Bft)
07.08.2018 06:00 17,6 C 87 % 1010,6 hPa 0,0 l/m N 0,00 h 16 W/m 0,0 km/h (0 Bft)
07.08.2018 07:00 18,4 C 86 % 1010,6 hPa 0,0 l/m N 0,17 h 82 W/m 0,0 km/h (0 Bft)
07.08.2018 08:00 20,2 C 81 % 1010,9 hPa 0,0 l/m N 0,50 h 202 W/m 0,4 km/h (0 Bft)
07.08.2018 09:00 23,4 C 71 % 1011,0 hPa 0,0 l/m S 0,83 h 459 W/m 3,4 km/h (1 Bft)
07.08.2018 10:00 25,1 C 64 % 1011,0 hPa 0,0 l/m S-SO 0,25 h 255 W/m 9,5 km/h (2 Bft)
07.08.2018 11:00 23,2 C 72 % 1011,8 hPa 0,8 l/m O-SO 0,00 h 94 W/m 11,3 km/h (2 Bft)
07.08.2018 12:00 20,0 C 91 % 1011,7 hPa 2,4 l/m N 0,00 h 118 W/m 0,8 km/h (0 Bft)
07.08.2018 13:00 20,5 C 94 % 1010,9 hPa 0,0 l/m O-SO 0,00 h 204 W/m 0,9 km/h (0 Bft)
07.08.2018 14:00 21,0 C 93 % 1010,7 hPa 0,0 l/m N 0,00 h 171 W/m 0,0 km/h (0 Bft)
07.08.2018 15:00 23,3 C 84 % 1010,5 hPa 0,0 l/m N 0,33 h 446 W/m 0,0 km/h (0 Bft)
07.08.2018 16:00 27,3 C 60 % 1010,1 hPa 0,0 l/m N 0,67 h 460 W/m 1,7 km/h (1 Bft)
07.08.2018 17:00 28,0 C 54 % 1010,1 hPa 0,0 l/m W-NW 0,75 h 386 W/m 13,3 km/h (3 Bft)
07.08.2018 18:00 24,9 C 56 % 1009,7 hPa 0,0 l/m W-NW 0,25 h 128 W/m 11,5 km/h (2 Bft)
07.08.2018 19:00 24,5 C 60 % 1008,9 hPa 0,0 l/m W 0,08 h 70 W/m 3,7 km/h (1 Bft)
07.08.2018 20:00 22,6 C 66 % 1008,7 hPa 0,0 l/m W 0,00 h 21 W/m 1,5 km/h (1 Bft)
07.08.2018 21:00 20,6 C 75 % 1008,6 hPa 0,0 l/m N 0,00 h 0 W/m 0,0 km/h (0 Bft)
07.08.2018 22:00 19,6 C 79 % 1009,4 hPa 0,0 l/m N 0,00 h 0 W/m 0,1 km/h (0 Bft)
07.08.2018 23:00 18,8 C 85 % 1009,9 hPa 0,0 l/m W 0,00 h 0 W/m 2,8 km/h (1 Bft)
08.08.2018 00:00 18,1 C 86 % 1009,7 hPa 0,0 l/m N 0,00 h 0 W/m 0,0 km/h (0 Bft)
08.08.2018 01:00 17,0 C 91 % 1009,3 hPa 0,0 l/m N 0,00 h 0 W/m 0,0 km/h (0 Bft)
08.08.2018 02:00 16,4 C 92 % 1008,9 hPa 0,0 l/m N 0,00 h 0 W/m 0,0 km/h (0 Bft)
08.08.2018 03:00 15,8 C 94 % 1008,8 hPa 0,0 l/m N 0,00 h 0 W/m 0,0 km/h (0 Bft)
08.08.2018 04:00 15,6 C 95 % 1009,2 hPa 0,0 l/m N 0,00 h 0 W/m 0,5 km/h (0 Bft)
08.08.2018 05:00 15,2 C 96 % 1009,5 hPa 0,0 l/m N 0,00 h 5 W/m 0,0 km/h (0 Bft)
08.08.2018 06:00 15,6 C 96 % 1010,4 hPa 0,0 l/m W 0,67 h 38 W/m 0,9 km/h (0 Bft)
08.08.2018 07:00 17,3 C 93 % 1012,1 hPa 1,2 l/m W-SW 0,00 h 19 W/m 16,1 km/h (3 Bft)
08.08.2018 08:00 17,9 C 95 % 1013,1 hPa 4,4 l/m SO 0,00 h 18 W/m 5,5 km/h (1 Bft)
08.08.2018 09:00 17,8 C 97 % 1013,0 hPa 0,8 l/m SO 0,00 h 65 W/m 9,6 km/h (2 Bft)
08.08.2018 10:00 18,4 C 98 % 1012,8 hPa 1,2 l/m SW 0,08 h 225 W/m 7,7 km/h (2 Bft)
08.08.2018 11:00 20,9 C 93 % 1012,7 hPa 0,0 l/m SW 0,42 h 490 W/m 12,0 km/h (2 Bft)
08.08.2018 12:00 22,2 C 85 % 1012,8 hPa 0,0 l/m SW 0,00 h 353 W/m 11,6 km/h (2 Bft)
08.08.2018 13:00 23,6 C 78 % 1012,8 hPa 0,0 l/m SW 0,50 h 457 W/m 8,9 km/h (2 Bft)
08.08.2018 14:00 25,8 C 68 % 1012,4 hPa 0,0 l/m SW 1,00 h 788 W/m 10,4 km/h (2 Bft)
08.08.2018 15:00 28,3 C 59 % 1011,6 hPa 0,0 l/m SW 1,00 h 723 W/m 12,1 km/h (2 Bft)
08.08.2018 16:00 29,2 C 52 % 1011,2 hPa 0,0 l/m SW 1,00 h 608 W/m 12,6 km/h (3 Bft)
08.08.2018 17:00 29,3 C 47 % 1011,0 hPa 0,0 l/m SW 0,67 h 352 W/m 11,6 km/h (2 Bft)
08.08.2018 18:00 26,1 C 54 % 1011,4 hPa 0,0 l/m N-NW 0,33 h 183 W/m 13,3 km/h (3 Bft)
08.08.2018 19:00 25,3 C 54 % 1011,2 hPa 0,0 l/m N-NW 0,50 h 123 W/m 2,9 km/h (1 Bft)
08.08.2018 20:00 23,2 C 64 % 1011,6 hPa 0,0 l/m N 0,00 h 11 W/m 0,3 km/h (0 Bft)
08.08.2018 21:00 21,4 C 72 % 1012,3 hPa 0,0 l/m N 0,00 h 0 W/m 0,0 km/h (0 Bft)
08.08.2018 22:00 20,0 C 79 % 1012,7 hPa 0,0 l/m N 0,00 h 0 W/m 0,4 km/h (0 Bft)
08.08.2018 23:00 18,7 C 84 % 1013,0 hPa 0,0 l/m N 0,00 h 0 W/m 0,0 km/h (0 Bft)
09.08.2018 00:00 17,9 C 88 % 1012,8 hPa 0,0 l/m N 0,00 h 0 W/m 0,0 km/h (0 Bft)
09.08.2018 01:00 17,5 C 89 % 1012,4 hPa 0,0 l/m N 0,00 h 0 W/m 0,0 km/h (0 Bft)
09.08.2018 02:00 16,8 C 91 % 1012,1 hPa 0,0 l/m N 0,00 h 0 W/m 0,0 km/h (0 Bft)
09.08.2018 03:00 16,8 C 92 % 1011,6 hPa 0,0 l/m N 0,00 h 0 W/m 0,3 km/h (0 Bft)
09.08.2018 04:00 16,7 C 92 % 1011,2 hPa 0,0 l/m N 0,00 h 0 W/m 0,0 km/h (0 Bft)
09.08.2018 05:00 16,3 C 93 % 1010,9 hPa 0,0 l/m N 0,00 h 0 W/m 0,1 km/h (0 Bft)
09.08.2018 06:00 15,8 C 95 % 1011,1 hPa 0,0 l/m N 0,08 h 21 W/m 0,0 km/h (0 Bft)
09.08.2018 07:00 16,9 C 95 % 1011,3 hPa 0,0 l/m N-NW 0,75 h 126 W/m 1,2 km/h (1 Bft)
09.08.2018 08:00 19,8 C 86 % 1011,3 hPa 0,0 l/m N-NW 1,00 h 350 W/m 3,9 km/h (1 Bft)
09.08.2018 09:00 22,2 C 77 % 1011,0 hPa 0,0 l/m S-SW 0,58 h 331 W/m 8,8 km/h (2 Bft)
09.08.2018 10:00 23,8 C 70 % 1010,5 hPa 0,0 l/m S-SW 0,75 h 452 W/m 6,8 km/h (2 Bft)
09.08.2018 11:00 25,4 C 63 % 1010,2 hPa 0,0 l/m S-SW 0,50 h 568 W/m 11,3 km/h (2 Bft)
09.08.2018 12:00 27,4 C 55 % 1009,7 hPa 0,0 l/m SW 0,92 h 825 W/m 14,9 km/h (3 Bft)
09.08.2018 13:00 30,0 C 44 % 1009,1 hPa 0,0 l/m SW 1,00 h 840 W/m 16,8 km/h (3 Bft)
09.08.2018 14:00 31,0 C 39 % 1008,8 hPa 0,0 l/m SW 1,00 h 804 W/m 19,3 km/h (3 Bft)
09.08.2018 15:00 31,8 C 36 % 1008,4 hPa 0,0 l/m W-SW 1,00 h 704 W/m 16,5 km/h (3 Bft)
09.08.2018 16:00 31,1 C 38 % 1008,7 hPa 0,0 l/m W-SW 0,42 h 368 W/m 19,4 km/h (3 Bft)
09.08.2018 17:00 28,3 C 47 % 1009,9 hPa 0,0 l/m W-NW 0,33 h 274 W/m 30,8 km/h (5 Bft)
09.08.2018 18:00 25,0 C 56 % 1011,2 hPa 0,8 l/m W 0,00 h 50 W/m 22,8 km/h (4 Bft)
09.08.2018 19:00 19,9 C 81 % 1012,8 hPa 0,6 l/m W-SW 0,00 h 22 W/m 22,8 km/h (4 Bft)
09.08.2018 20:00 18,9 C 87 % 1013,3 hPa 0,0 l/m SW 0,00 h 14 W/m 16,5 km/h (3 Bft)
09.08.2018 21:00 18,5 C 88 % 1014,0 hPa 0,0 l/m SW 0,00 h 0 W/m 13,8 km/h (3 Bft)
09.08.2018 22:00 18,2 C 89 % 1014,4 hPa 0,0 l/m W-SW 0,00 h 0 W/m 7,1 km/h (2 Bft)
09.08.2018 23:00 17,7 C 92 % 1014,9 hPa 0,0 l/m W-SW 0,00 h 0 W/m 3,1 km/h (1 Bft)
10.08.2018 00:00 17,4 C 93 % 1015,6 hPa 0,0 l/m N 0,00 h 0 W/m 0,3 km/h (0 Bft)
10.08.2018 01:00 17,1 C 93 % 1016,1 hPa 0,0 l/m W-SW 0,00 h 0 W/m 3,1 km/h (1 Bft)
10.08.2018 02:00 16,7 C 95 % 1016,5 hPa 0,0 l/m N 0,00 h 0 W/m 4,3 km/h (1 Bft)
10.08.2018 03:00 16,9 C 92 % 1017,1 hPa 0,0 l/m W-SW 0,00 h 0 W/m 9,1 km/h (2 Bft)
10.08.2018 04:00 16,9 C 88 % 1017,8 hPa 0,0 l/m NW 0,00 h 0 W/m 7,8 km/h (2 Bft)
10.08.2018 05:00 16,0 C 91 % 1018,7 hPa 1,2 l/m N 0,00 h 0 W/m 0,1 km/h (0 Bft)
10.08.2018 06:00 14,8 C 94 % 1019,5 hPa 1,2 l/m NW 0,00 h 10 W/m 5,8 km/h (2 Bft)
10.08.2018 07:00 14,4 C 96 % 1020,3 hPa 1,0 l/m N 0,00 h 22 W/m 2,0 km/h (1 Bft)
10.08.2018 08:00 14,4 C 97 % 1021,0 hPa 0,4 l/m W-NW 0,00 h 109 W/m 3,8 km/h (1 Bft)
10.08.2018 09:00 14,8 C 96 % 1021,6 hPa 0,0 l/m W 0,00 h 149 W/m 9,1 km/h (2 Bft)
10.08.2018 10:00 15,1 C 96 % 1021,8 hPa 0,2 l/m SW 0,00 h 252 W/m 9,7 km/h (2 Bft)
10.08.2018 11:00 16,4 C 89 % 1021,9 hPa 0,0 l/m SW 0,67 h 548 W/m 12,2 km/h (2 Bft)
10.08.2018 12:00 17,5 C 81 % 1021,5 hPa 0,0 l/m SW 0,58 h 555 W/m 13,0 km/h (3 Bft)
10.08.2018 13:00 18,7 C 77 % 1021,5 hPa 0,0 l/m SW 0,50 h 456 W/m 14,6 km/h (3 Bft)
10.08.2018 14:00 19,8 C 70 % 1021,2 hPa 0,0 l/m SW 0,42 h 523 W/m 12,8 km/h (3 Bft)
10.08.2018 15:00 20,7 C 63 % 1021,0 hPa 0,0 l/m SW 0,50 h 544 W/m 15,7 km/h (3 Bft)
10.08.2018 16:00 20,2 C 63 % 1021,0 hPa 0,0 l/m SW 0,42 h 344 W/m 14,8 km/h (3 Bft)
10.08.2018 17:00 20,7 C 61 % 1020,8 hPa 0,0 l/m SW 0,17 h 235 W/m 12,0 km/h (2 Bft)
10.08.2018 18:00 20,1 C 62 % 1020,7 hPa 0,0 l/m SW 0,25 h 145 W/m 7,4 km/h (2 Bft)
10.08.2018 19:00 20,3 C 61 % 1020,5 hPa 0,0 l/m S-SO 0,58 h 109 W/m 8,4 km/h (2 Bft)
10.08.2018 20:00 17,6 C 74 % 1020,7 hPa 0,0 l/m N 0,00 h 14 W/m 0,0 km/h (0 Bft)
10.08.2018 21:00 15,3 C 85 % 1020,9 hPa 0,0 l/m N 0,00 h 0 W/m 0,0 km/h (0 Bft)
10.08.2018 22:00 14,2 C 87 % 1020,9 hPa 0,0 l/m N 0,00 h 0 W/m 0,0 km/h (0 Bft)
10.08.2018 23:00 13,5 C 91 % 1020,9 hPa 0,0 l/m N 0,00 h 0 W/m 0,0 km/h (0 Bft)
11.08.2018 00:00 12,6 C 92 % 1021,1 hPa 0,0 l/m N 0,00 h 0 W/m 0,0 km/h (0 Bft)
11.08.2018 01:00 12,2 C 93 % 1020,9 hPa 0,0 l/m N 0,00 h 0 W/m 0,0 km/h (0 Bft)
11.08.2018 02:00 11,8 C 94 % 1020,8 hPa 0,0 l/m N 0,00 h 0 W/m 0,0 km/h (0 Bft)
11.08.2018 03:00 11,5 C 95 % 1020,7 hPa 0,0 l/m N 0,00 h 0 W/m 0,0 km/h (0 Bft)
11.08.2018 04:00 11,1 C 96 % 1020,9 hPa 0,0 l/m N 0,00 h 0 W/m 0,0 km/h (0 Bft)
11.08.2018 05:00 10,7 C 96 % 1021,0 hPa 0,0 l/m N 0,00 h 0 W/m 0,0 km/h (0 Bft)
11.08.2018 06:00 10,5 C 97 % 1021,5 hPa 0,0 l/m N 0,08 h 20 W/m 0,0 km/h (0 Bft)
11.08.2018 07:00 11,3 C 97 % 1022,1 hPa 0,0 l/m N 0,42 h 100 W/m 0,0 km/h (0 Bft)
11.08.2018 08:00 14,5 C 90 % 1022,6 hPa 0,0 l/m N 0,50 h 266 W/m 0,3 km/h (0 Bft)
11.08.2018 09:00 17,1 C 68 % 1022,6 hPa 0,0 l/m W-NW 0,67 h 369 W/m 8,3 km/h (2 Bft)
11.08.2018 10:00 18,9 C 59 % 1022,5 hPa 0,0 l/m W-SW 0,83 h 541 W/m 10,6 km/h (2 Bft)
11.08.2018 11:00 19,5 C 56 % 1022,1 hPa 0,0 l/m W-NW 0,25 h 371 W/m 10,9 km/h (2 Bft)
11.08.2018 12:00 19,8 C 56 % 1021,8 hPa 0,0 l/m W-NW 0,00 h 279 W/m 9,8 km/h (2 Bft)
11.08.2018 13:00 20,2 C 55 % 1021,6 hPa 0,0 l/m W-NW 0,00 h 298 W/m 6,3 km/h (2 Bft)
11.08.2018 14:00 21,7 C 52 % 1021,1 hPa 0,0 l/m W 0,67 h 721 W/m 8,5 km/h (2 Bft)
11.08.2018 15:00 22,7 C 48 % 1020,4 hPa 0,0 l/m SW 0,42 h 465 W/m 11,7 km/h (2 Bft)
11.08.2018 16:00 23,1 C 45 % 1019,8 hPa 0,0 l/m W 0,58 h 513 W/m 9,9 km/h (2 Bft)
11.08.2018 17:00 23,9 C 42 % 1019,3 hPa 0,0 l/m W-SW 0,92 h 501 W/m 10,8 km/h (2 Bft)
11.08.2018 18:00 23,8 C 41 % 1019,1 hPa 0,0 l/m W 1,00 h 320 W/m 4,4 km/h (1 Bft)
11.08.2018 19:00 22,5 C 44 % 1019,0 hPa 0,0 l/m W 0,58 h 108 W/m 4,0 km/h (1 Bft)
11.08.2018 20:00 18,8 C 61 % 1019,2 hPa 0,0 l/m N 0,08 h 14 W/m 0,0 km/h (0 Bft)
11.08.2018 21:00 16,4 C 69 % 1019,5 hPa 0,0 l/m N 0,00 h 0 W/m 0,0 km/h (0 Bft)
11.08.2018 22:00 15,3 C 72 % 1019,7 hPa 0,0 l/m N 0,00 h 0 W/m 0,3 km/h (0 Bft)
11.08.2018 23:00 14,9 C 72 % 1019,8 hPa 0,0 l/m N 0,00 h 0 W/m 2,3 km/h (1 Bft)
12.08.2018 00:00 14,7 C 70 % 1019,6 hPa 0,0 l/m W 0,00 h 0 W/m 2,9 km/h (1 Bft)
12.08.2018 01:00 13,6 C 77 % 1019,1 hPa 0,0 l/m N 0,00 h 0 W/m 0,4 km/h (0 Bft)
12.08.2018 02:00 12,7 C 80 % 1018,8 hPa 0,0 l/m W 0,00 h 0 W/m 2,3 km/h (1 Bft)
12.08.2018 03:00 12,5 C 79 % 1018,3 hPa 0,0 l/m N 0,00 h 0 W/m 1,1 km/h (0 Bft)
12.08.2018 04:00 12,2 C 80 % 1017,7 hPa 0,0 l/m N 0,00 h 0 W/m 0,3 km/h (0 Bft)
12.08.2018 05:00 11,5 C 83 % 1017,2 hPa 0,0 l/m N 0,00 h 0 W/m 0,0 km/h (0 Bft)
12.08.2018 06:00 11,0 C 85 % 1016,9 hPa 0,0 l/m N 0,08 h 18 W/m 0,8 km/h (0 Bft)
12.08.2018 07:00 12,7 C 79 % 1016,6 hPa 0,0 l/m N 0,42 h 108 W/m 1,3 km/h (1 Bft)
12.08.2018 08:00 15,0 C 71 % 1016,0 hPa 0,0 l/m W 1,00 h 317 W/m 4,4 km/h (1 Bft)
12.08.2018 09:00 17,7 C 65 % 1015,8 hPa 0,0 l/m N 0,92 h 412 W/m 1,3 km/h (1 Bft)
12.08.2018 10:00 20,6 C 58 % 1015,4 hPa 0,0 l/m W 0,92 h 577 W/m 2,8 km/h (1 Bft)
12.08.2018 11:00 23,0 C 52 % 1015,1 hPa 0,0 l/m SW 1,00 h 744 W/m 5,6 km/h (1 Bft)
12.08.2018 12:00 24,7 C 47 % 1014,5 hPa 0,0 l/m O 1,00 h 817 W/m 7,1 km/h (2 Bft)
12.08.2018 13:00 26,4 C 44 % 1013,8 hPa 0,0 l/m SO 1,00 h 838 W/m 7,8 km/h (2 Bft)
12.08.2018 14:00 27,6 C 42 % 1013,0 hPa 0,0 l/m SO 1,00 h 809 W/m 9,5 km/h (2 Bft)
12.08.2018 15:00 28,5 C 40 % 1012,3 hPa 0,0 l/m SW 1,00 h 733 W/m 15,3 km/h (3 Bft)
12.08.2018 16:00 29,0 C 38 % 1011,5 hPa 0,0 l/m SW 1,00 h 609 W/m 19,7 km/h (3 Bft)
12.08.2018 17:00 28,9 C 37 % 1010,8 hPa 0,0 l/m SW 1,00 h 459 W/m 17,7 km/h (3 Bft)
12.08.2018 18:00 28,3 C 38 % 1010,3 hPa 0,0 l/m SW 1,00 h 290 W/m 14,5 km/h (3 Bft)
12.08.2018 19:00 26,6 C 41 % 1010,0 hPa 0,0 l/m SW 0,58 h 104 W/m 11,4 km/h (2 Bft)
12.08.2018 20:00 23,4 C 52 % 1010,0 hPa 0,0 l/m N 0,00 h 14 W/m 0,8 km/h (0 Bft)
12.08.2018 21:00 21,7 C 58 % 1010,0 hPa 0,0 l/m SW 0,00 h 0 W/m 3,6 km/h (1 Bft)
12.08.2018 22:00 19,9 C 66 % 1009,9 hPa 0,0 l/m N 0,00 h 0 W/m 0,4 km/h (0 Bft)
12.08.2018 23:00 17,4 C 77 % 1009,9 hPa 0,0 l/m N 0,00 h 0 W/m 0,0 km/h (0 Bft)
Min-Datum _ 11.08.18 09.08.18 07.08.18 - - - - 06.08.18
_ Min-Zeit 06:05 15:50 21:10 - - - - 00:00
Minimum _ 10,3 C 34 % 1008,2 hPa - - - - 0,0 km/h (0 Bft)
Max-Datum _ 06.08.18 08.08.18 11.08.18 08.08.18 - 06.08.18 10.08.18 09.08.18
_ Max-Zeit 16:55 09:30 08:50 08:30 - 06:15 12:55 17:35
Maximum _ 32,6 C 98 % 1022,7 hPa 4,4 l/m - 0,08 h 1187 W/m 40,2 km/h
W-NW (6 Bft)
Durchschnitt _ 20,4 C 72 % 1014,4 hPa #16,2 l/m SW #51:15 h 330 W/m 6,2 km/h (2 Bft)